createdAt,value
2023-12-09T00:00:14.512Z,2.10
2023-12-09T00:01:46.699Z,2.20
2023-12-09T00:03:18.685Z,2.40
2023-12-09T00:04:50.775Z,2.20
2023-12-09T00:06:23.855Z,1.90
2023-12-09T00:07:55.902Z,1.80
2023-12-09T00:09:27.892Z,2.10
2023-12-09T00:10:59.876Z,2.00
2023-12-09T00:12:31.754Z,2.20
2023-12-09T00:14:06.450Z,1.50
2023-12-09T00:15:38.532Z,2.20
2023-12-09T00:17:10.689Z,2.00
2023-12-09T00:18:42.881Z,2.00
2023-12-09T00:20:14.928Z,2.10
2023-12-09T00:21:46.879Z,2.60
2023-12-09T00:23:18.784Z,2.20
2023-12-09T00:24:50.593Z,2.10
2023-12-09T00:26:22.679Z,1.80
2023-12-09T00:27:54.578Z,2.30
2023-12-09T00:29:26.451Z,2.40
2023-12-09T00:30:58.379Z,2.30
2023-12-09T00:32:30.460Z,2.00
2023-12-09T00:34:02.668Z,2.10
2023-12-09T00:35:34.576Z,2.50
2023-12-09T00:37:06.598Z,2.10
2023-12-09T00:38:38.457Z,2.20
2023-12-09T00:40:11.444Z,1.80
2023-12-09T00:41:43.834Z,1.70
2023-12-09T00:43:15.661Z,2.10
2023-12-09T00:44:47.605Z,2.00
2023-12-09T00:46:19.548Z,2.10
2023-12-09T00:47:53.459Z,1.90
2023-12-09T00:49:25.571Z,1.90
2023-12-09T00:50:57.512Z,1.90
2023-12-09T00:52:29.822Z,1.90
2023-12-09T00:54:02.127Z,1.90
2023-12-09T00:55:35.317Z,1.90
2023-12-09T00:57:07.323Z,2.00
2023-12-09T00:58:39.234Z,1.60
2023-12-09T01:00:12.387Z,1.40
2023-12-09T01:01:44.500Z,2.00
2023-12-09T01:03:16.629Z,1.80
2023-12-09T01:04:48.758Z,1.80
2023-12-09T01:06:20.735Z,2.00
2023-12-09T01:07:52.783Z,1.40
2023-12-09T01:09:24.744Z,1.60
2023-12-09T01:10:58.816Z,1.80
2023-12-09T01:12:31.622Z,1.40
2023-12-09T01:14:03.756Z,1.80
2023-12-09T01:15:35.675Z,1.90
2023-12-09T01:17:08.120Z,1.80
2023-12-09T01:18:40.108Z,1.30
2023-12-09T01:20:12.409Z,1.60
2023-12-09T01:21:44.282Z,2.10
2023-12-09T01:23:16.223Z,1.60
2023-12-09T01:24:48.174Z,1.30
2023-12-09T01:26:20.118Z,1.60
2023-12-09T01:27:53.806Z,2.00
2023-12-09T01:29:25.797Z,1.70
2023-12-09T01:30:57.630Z,1.70
2023-12-09T01:32:29.791Z,2.00
2023-12-09T01:34:02.150Z,1.40
2023-12-09T01:35:34.143Z,1.70
2023-12-09T01:37:05.978Z,1.70
2023-12-09T01:38:38.038Z,1.40
2023-12-09T01:40:15.299Z,1.80
2023-12-09T01:41:47.265Z,1.70
2023-12-09T01:43:19.132Z,1.50
2023-12-09T01:44:51.038Z,1.90
2023-12-09T01:46:23.762Z,1.60
2023-12-09T01:47:57.626Z,2.00
2023-12-09T01:49:29.864Z,1.40
2023-12-09T01:51:02.734Z,1.60
2023-12-09T01:52:35.803Z,1.50
2023-12-09T01:54:11.705Z,1.70
2023-12-09T01:55:44.389Z,1.70
2023-12-09T01:57:16.720Z,1.60
2023-12-09T01:58:50.259Z,1.60
2023-12-09T02:00:22.629Z,1.50
2023-12-09T02:01:55.857Z,1.50
2023-12-09T02:03:28.031Z,2.10
2023-12-09T02:05:02.344Z,2.00
2023-12-09T02:06:36.898Z,1.70
2023-12-09T02:08:08.896Z,1.80
2023-12-09T02:09:40.830Z,1.70
2023-12-09T02:11:26.211Z,1.80
2023-12-09T02:13:31.557Z,1.50
2023-12-09T02:15:38.273Z,1.60
2023-12-09T02:17:35.003Z,1.70
2023-12-09T02:19:13.196Z,1.60
2023-12-09T02:20:45.220Z,1.70
2023-12-09T02:22:17.149Z,1.40
2023-12-09T02:23:50.625Z,1.40
2023-12-09T02:25:22.465Z,1.30
2023-12-09T02:26:59.893Z,2.10
2023-12-09T02:28:36.251Z,1.50
2023-12-09T02:30:31.967Z,1.60
2023-12-09T02:32:08.199Z,2.10
2023-12-09T02:33:46.642Z,1.50
2023-12-09T02:35:23.047Z,1.40
2023-12-09T02:36:57.575Z,1.60
2023-12-09T02:38:31.332Z,1.60
2023-12-09T02:40:04.546Z,1.40
2023-12-09T02:41:37.308Z,1.60
2023-12-09T02:43:11.942Z,2.00
2023-12-09T02:44:48.078Z,1.60
2023-12-09T02:46:20.581Z,1.50
2023-12-09T02:47:52.933Z,2.30
2023-12-09T02:49:25.187Z,1.50
2023-12-09T02:50:57.388Z,1.30
2023-12-09T02:52:30.021Z,1.20
2023-12-09T02:54:02.114Z,1.90
2023-12-09T02:55:33.945Z,1.60
2023-12-09T02:57:05.937Z,1.40
2023-12-09T02:58:39.162Z,1.80
2023-12-09T03:00:11.827Z,1.80
2023-12-09T03:01:44.035Z,2.00
2023-12-09T03:03:15.976Z,1.50
2023-12-09T03:04:47.925Z,1.30
2023-12-09T03:06:19.787Z,1.80
2023-12-09T03:07:52.013Z,1.70
2023-12-09T03:09:23.873Z,1.80
2023-12-09T03:10:55.736Z,1.50
2023-12-09T03:12:28.004Z,1.60
2023-12-09T03:14:00.669Z,2.00
2023-12-09T03:15:32.577Z,1.70
2023-12-09T03:17:04.665Z,1.40
2023-12-09T03:18:36.582Z,1.80
2023-12-09T03:20:12.301Z,1.50
2023-12-09T03:21:44.972Z,1.20
2023-12-09T03:23:16.853Z,1.20
2023-12-09T03:24:49.222Z,1.40
2023-12-09T03:26:21.434Z,1.80
2023-12-09T03:27:53.438Z,1.50
2023-12-09T03:29:25.771Z,1.70
2023-12-09T03:30:57.559Z,1.90
2023-12-09T03:32:29.807Z,1.50
2023-12-09T03:34:02.156Z,1.50
2023-12-09T03:35:34.754Z,1.60
2023-12-09T03:37:06.722Z,1.80
2023-12-09T03:38:38.764Z,2.10
2023-12-09T03:40:11.832Z,1.50
2023-12-09T03:41:43.730Z,1.80
2023-12-09T03:43:16.365Z,1.90
2023-12-09T03:44:48.225Z,2.10
2023-12-09T03:46:20.104Z,2.20
2023-12-09T03:47:52.197Z,1.70
2023-12-09T03:49:24.405Z,1.90
2023-12-09T03:50:56.862Z,1.60
2023-12-09T03:52:29.154Z,2.00
2023-12-09T03:54:01.204Z,2.00
2023-12-09T03:55:33.067Z,1.50
2023-12-09T03:57:05.331Z,1.70
2023-12-09T03:58:37.733Z,1.50
2023-12-09T04:00:12.738Z,1.60
2023-12-09T04:01:50.026Z,1.00
2023-12-09T04:03:22.199Z,1.40
2023-12-09T04:04:54.095Z,1.80
2023-12-09T04:06:26.115Z,1.60
2023-12-09T04:07:58.100Z,1.80
2023-12-09T04:09:29.997Z,1.90
2023-12-09T04:11:04.974Z,2.60
2023-12-09T04:12:36.954Z,1.60
2023-12-09T04:14:08.828Z,1.80
2023-12-09T04:15:41.000Z,2.20
2023-12-09T04:17:13.647Z,1.70
2023-12-09T04:18:45.678Z,1.80
2023-12-09T04:20:18.508Z,1.70
2023-12-09T04:21:53.055Z,1.80
2023-12-09T04:23:26.067Z,2.00
2023-12-09T04:24:57.932Z,1.80
2023-12-09T04:26:29.868Z,2.70
2023-12-09T04:28:02.421Z,1.60
2023-12-09T04:29:34.295Z,2.30
2023-12-09T04:31:06.547Z,1.90
2023-12-09T04:32:38.506Z,1.80
2023-12-09T04:34:10.529Z,2.00
2023-12-09T04:35:42.485Z,2.20
2023-12-09T04:37:14.424Z,2.40
2023-12-09T04:38:46.266Z,1.80
2023-12-09T04:40:19.060Z,1.90
2023-12-09T04:41:51.039Z,1.90
2023-12-09T04:43:22.996Z,2.30
2023-12-09T04:44:55.175Z,1.80
2023-12-09T04:46:29.855Z,1.90
2023-12-09T04:48:01.844Z,1.70
2023-12-09T04:49:34.730Z,1.90
2023-12-09T04:51:07.217Z,1.90
2023-12-09T04:52:39.172Z,1.80
2023-12-09T04:54:11.457Z,1.90
2023-12-09T04:55:43.333Z,2.00
2023-12-09T04:57:15.282Z,1.50
2023-12-09T04:58:47.396Z,2.10
2023-12-09T05:00:19.396Z,1.60
2023-12-09T05:01:51.254Z,2.10
2023-12-09T05:03:23.264Z,1.50
2023-12-09T05:04:56.520Z,2.00
2023-12-09T05:06:28.644Z,1.90
2023-12-09T05:08:00.525Z,1.60
2023-12-09T05:09:32.526Z,1.40
2023-12-09T05:11:04.740Z,1.60
2023-12-09T05:12:36.638Z,1.60
2023-12-09T05:14:09.549Z,1.70
2023-12-09T05:15:41.482Z,1.50
2023-12-09T05:17:13.335Z,2.30
2023-12-09T05:18:46.027Z,2.00
2023-12-09T05:20:18.135Z,1.40
2023-12-09T05:21:50.109Z,1.70
2023-12-09T05:23:22.684Z,1.60
2023-12-09T05:24:54.676Z,1.50
2023-12-09T05:26:29.598Z,1.80
2023-12-09T05:28:02.227Z,1.80
2023-12-09T05:29:34.298Z,1.50
2023-12-09T05:31:06.579Z,2.30
2023-12-09T05:32:38.520Z,2.10
2023-12-09T05:34:10.726Z,2.00
2023-12-09T05:35:43.164Z,1.80
2023-12-09T05:37:15.249Z,1.80
2023-12-09T05:38:47.211Z,1.50
2023-12-09T05:40:19.146Z,1.60
2023-12-09T05:41:51.216Z,1.90
2023-12-09T05:43:23.166Z,1.50
2023-12-09T05:44:55.210Z,1.60
2023-12-09T05:46:27.258Z,1.80
2023-12-09T05:47:59.443Z,1.80
2023-12-09T05:49:31.622Z,1.60
2023-12-09T05:51:04.045Z,2.10
2023-12-09T05:52:36.010Z,1.60
2023-12-09T05:54:07.940Z,1.80
2023-12-09T05:55:39.866Z,1.80
2023-12-09T05:57:11.822Z,1.50
2023-12-09T05:58:43.843Z,1.30
2023-12-09T06:00:16.315Z,1.90
2023-12-09T06:01:48.200Z,1.60
2023-12-09T06:03:20.230Z,2.00
2023-12-09T06:04:52.203Z,2.00
2023-12-09T06:06:24.529Z,1.70
2023-12-09T06:07:58.172Z,1.60
2023-12-09T06:09:30.579Z,2.00
2023-12-09T06:11:03.122Z,2.00
2023-12-09T06:12:35.074Z,1.70
2023-12-09T06:14:10.706Z,1.70
2023-12-09T06:15:42.795Z,2.20
2023-12-09T06:17:14.808Z,1.60
2023-12-09T06:18:50.127Z,2.00
2023-12-09T06:20:22.733Z,1.70
2023-12-09T06:21:56.120Z,2.30
2023-12-09T06:23:28.240Z,1.70
2023-12-09T06:25:00.214Z,1.50
2023-12-09T06:26:32.162Z,1.50
2023-12-09T06:28:04.263Z,2.00
2023-12-09T06:29:36.502Z,1.90
2023-12-09T06:31:08.567Z,1.70
2023-12-09T06:32:40.469Z,1.90
2023-12-09T06:34:12.629Z,1.60
2023-12-09T06:35:44.819Z,1.90
2023-12-09T06:37:16.751Z,1.70
2023-12-09T06:38:48.802Z,1.70
2023-12-09T06:40:21.051Z,1.80
2023-12-09T06:41:52.854Z,2.00
2023-12-09T06:43:26.093Z,1.80
2023-12-09T06:44:57.974Z,1.80
2023-12-09T06:46:29.806Z,1.70
2023-12-09T06:48:01.911Z,1.90
2023-12-09T06:49:34.166Z,1.50
2023-12-09T06:51:08.536Z,1.50
2023-12-09T06:52:40.712Z,1.70
2023-12-09T06:54:13.910Z,1.70
2023-12-09T06:55:45.902Z,1.60
2023-12-09T06:57:17.780Z,1.30
2023-12-09T06:58:50.821Z,1.40
2023-12-09T07:00:23.225Z,1.30
2023-12-09T07:01:59.230Z,1.80
2023-12-09T07:03:31.215Z,1.70
2023-12-09T07:05:03.324Z,1.20
2023-12-09T07:06:35.279Z,1.80
2023-12-09T07:08:12.042Z,1.20
2023-12-09T07:09:44.140Z,1.70
2023-12-09T07:11:19.218Z,1.50
2023-12-09T07:12:51.198Z,1.40
2023-12-09T07:14:23.274Z,1.10
2023-12-09T07:15:56.289Z,1.30
2023-12-09T07:17:28.262Z,1.70
2023-12-09T07:19:01.448Z,1.00
2023-12-09T07:20:34.684Z,1.00
2023-12-09T07:22:06.733Z,1.20
2023-12-09T07:23:38.672Z,1.50
2023-12-09T07:25:10.645Z,1.50
2023-12-09T07:26:42.680Z,1.10
2023-12-09T07:28:14.760Z,1.10
2023-12-09T07:29:46.613Z,1.40
2023-12-09T07:31:18.812Z,1.50
2023-12-09T07:32:50.936Z,1.30
2023-12-09T07:34:23.221Z,1.00
2023-12-09T07:35:56.037Z,1.00
2023-12-09T07:37:28.248Z,1.00
2023-12-09T07:39:01.994Z,0.80
2023-12-09T07:40:33.925Z,1.40
2023-12-09T07:42:05.873Z,1.50
2023-12-09T07:43:40.153Z,0.80
2023-12-09T07:45:14.586Z,1.30
2023-12-09T07:46:52.118Z,1.00
2023-12-09T07:48:24.484Z,1.20
2023-12-09T07:49:56.624Z,1.20
2023-12-09T07:51:28.898Z,1.10
2023-12-09T07:53:00.977Z,1.00
2023-12-09T07:54:34.494Z,1.00
2023-12-09T07:56:06.977Z,1.10
2023-12-09T07:57:38.903Z,0.80
2023-12-09T07:59:10.809Z,1.00
2023-12-09T08:00:42.781Z,0.90
2023-12-09T08:02:14.927Z,1.60
2023-12-09T08:03:47.387Z,1.30
2023-12-09T08:05:19.763Z,1.10
2023-12-09T08:06:53.693Z,1.20
2023-12-09T08:08:25.813Z,0.90
2023-12-09T08:09:57.701Z,1.10
2023-12-09T08:11:31.905Z,1.10
2023-12-09T08:13:04.660Z,1.10
2023-12-09T08:14:36.645Z,1.00
2023-12-09T08:16:08.759Z,1.10
2023-12-09T08:17:41.375Z,1.00
2023-12-09T08:19:14.442Z,2.10
2023-12-09T08:20:47.363Z,1.10
2023-12-09T08:22:19.551Z,0.90
2023-12-09T08:23:51.494Z,1.00
2023-12-09T08:25:25.255Z,1.00
2023-12-09T08:26:57.345Z,1.40
2023-12-09T08:28:29.223Z,1.30
2023-12-09T08:30:01.294Z,1.00
2023-12-09T08:31:33.644Z,1.00
2023-12-09T08:33:05.725Z,1.60
2023-12-09T08:34:39.236Z,1.10
2023-12-09T08:36:11.378Z,1.10
2023-12-09T08:37:43.385Z,1.30
2023-12-09T08:39:16.405Z,1.00
2023-12-09T08:40:48.397Z,0.70
2023-12-09T08:42:20.357Z,1.20
2023-12-09T08:43:54.397Z,0.80
2023-12-09T08:45:28.617Z,1.00
2023-12-09T08:47:01.670Z,0.90
2023-12-09T08:48:34.346Z,0.90
2023-12-09T08:50:21.447Z,2.60
2023-12-09T08:51:56.185Z,1.20
2023-12-09T08:53:28.149Z,1.20
2023-12-09T08:55:02.063Z,1.20
2023-12-09T08:56:34.383Z,0.90
2023-12-09T08:58:06.413Z,1.30
2023-12-09T08:59:38.296Z,0.90
2023-12-09T09:01:10.820Z,0.90
2023-12-09T09:02:43.334Z,1.10
2023-12-09T09:04:15.316Z,0.70
2023-12-09T09:05:47.592Z,1.40
2023-12-09T09:07:20.038Z,1.50
2023-12-09T09:08:51.872Z,1.40
2023-12-09T09:10:24.468Z,1.20
2023-12-09T09:11:56.364Z,2.00
2023-12-09T09:13:31.470Z,1.50
2023-12-09T09:15:07.617Z,1.10
2023-12-09T09:16:40.672Z,1.30
2023-12-09T09:18:16.581Z,0.90
2023-12-09T09:19:51.351Z,1.10
2023-12-09T09:21:27.256Z,1.20
2023-12-09T09:22:59.359Z,1.00
2023-12-09T09:24:31.376Z,1.00
2023-12-09T09:26:04.132Z,1.20
2023-12-09T09:27:36.545Z,0.90
2023-12-09T09:29:08.546Z,1.30
2023-12-09T09:30:40.431Z,1.00
2023-12-09T09:32:12.405Z,0.90
2023-12-09T09:33:44.485Z,1.00
2023-12-09T09:35:16.757Z,0.80
2023-12-09T09:36:48.648Z,1.10
2023-12-09T09:38:20.556Z,1.30
2023-12-09T09:39:52.778Z,1.20
2023-12-09T09:41:41.170Z,1.30
2023-12-09T09:43:23.854Z,0.80
2023-12-09T09:45:32.528Z,1.10
2023-12-09T09:47:06.875Z,0.90
2023-12-09T09:48:44.547Z,0.90
2023-12-09T09:50:46.876Z,1.00
2023-12-09T09:52:23.759Z,0.90
2023-12-09T09:54:24.239Z,1.00
2023-12-09T09:55:57.887Z,1.00
2023-12-09T09:57:30.765Z,0.90
2023-12-09T09:59:04.719Z,1.00
2023-12-09T10:00:36.884Z,1.00
2023-12-09T10:02:11.298Z,0.90
2023-12-09T10:03:43.210Z,1.20
2023-12-09T10:05:17.772Z,0.90
2023-12-09T10:06:51.991Z,0.90
2023-12-09T10:08:24.935Z,1.10
2023-12-09T10:09:56.792Z,1.10
2023-12-09T10:11:28.610Z,0.90
2023-12-09T10:13:01.160Z,1.00
2023-12-09T10:14:33.119Z,0.80
2023-12-09T10:16:05.556Z,1.10
2023-12-09T10:17:38.002Z,1.00
2023-12-09T10:19:15.249Z,1.30
2023-12-09T10:20:49.584Z,1.10
2023-12-09T10:22:26.514Z,1.00
2023-12-09T10:23:58.699Z,0.80
2023-12-09T10:25:30.669Z,1.00
2023-12-09T10:27:02.889Z,1.00
2023-12-09T10:28:35.880Z,0.90
2023-12-09T10:30:09.941Z,0.80
2023-12-09T10:31:42.627Z,0.90
2023-12-09T10:33:16.683Z,1.10
2023-12-09T10:34:50.636Z,1.10
2023-12-09T10:36:24.932Z,0.80
2023-12-09T10:38:05.061Z,0.90
2023-12-09T10:39:37.612Z,1.10
2023-12-09T10:41:12.730Z,0.90
2023-12-09T10:42:46.131Z,0.90
2023-12-09T10:44:19.006Z,1.00
2023-12-09T10:45:51.571Z,1.20
2023-12-09T10:47:24.757Z,1.10
2023-12-09T10:48:56.925Z,0.90
2023-12-09T10:50:32.242Z,1.30
2023-12-09T10:52:08.390Z,0.80
2023-12-09T10:53:42.590Z,1.00
2023-12-09T10:55:15.936Z,1.00
2023-12-09T10:56:50.328Z,0.90
2023-12-09T10:58:23.109Z,0.80
2023-12-09T10:59:56.070Z,0.90
2023-12-09T11:01:30.933Z,1.00
2023-12-09T11:03:03.737Z,1.10
2023-12-09T11:04:39.781Z,1.30
2023-12-09T11:06:16.885Z,1.00
2023-12-09T11:07:50.055Z,0.90
2023-12-09T11:09:23.200Z,1.30
2023-12-09T11:10:58.056Z,1.00
2023-12-09T11:12:32.396Z,0.90
2023-12-09T11:14:10.352Z,1.20
2023-12-09T11:15:42.299Z,1.20
2023-12-09T11:17:54.479Z,0.90
2023-12-09T11:19:28.582Z,1.00
2023-12-09T11:21:04.817Z,1.20
2023-12-09T11:22:41.493Z,1.30
2023-12-09T11:24:16.938Z,0.80
2023-12-09T11:25:49.058Z,1.20
2023-12-09T11:27:21.738Z,1.10
2023-12-09T11:29:04.710Z,1.20
2023-12-09T11:30:43.988Z,1.30
2023-12-09T11:32:16.413Z,1.00
2023-12-09T11:33:53.170Z,1.30
2023-12-09T11:35:27.427Z,1.20
2023-12-09T11:37:01.182Z,0.90
2023-12-09T11:38:33.145Z,1.10
2023-12-09T11:40:06.483Z,1.30
2023-12-09T11:41:41.863Z,1.00
2023-12-09T11:43:17.108Z,1.40
2023-12-09T11:44:50.798Z,1.50
2023-12-09T11:46:22.912Z,1.10
2023-12-09T11:47:58.045Z,1.10
2023-12-09T11:49:33.554Z,1.00
2023-12-09T11:51:06.496Z,1.10
2023-12-09T11:52:38.601Z,1.30
2023-12-09T11:54:12.431Z,1.20
2023-12-09T11:55:46.634Z,1.10
2023-12-09T11:57:18.626Z,0.80
2023-12-09T11:58:51.364Z,0.80
2023-12-09T12:00:23.523Z,1.40
2023-12-09T12:01:55.711Z,1.30
2023-12-09T12:03:27.757Z,1.50
2023-12-09T12:04:59.932Z,1.10
2023-12-09T12:06:32.884Z,1.30
2023-12-09T12:08:06.199Z,0.90
2023-12-09T12:09:40.254Z,1.20
2023-12-09T12:11:12.461Z,0.90
2023-12-09T12:12:45.484Z,1.40
2023-12-09T12:14:17.767Z,1.00
2023-12-09T12:15:51.383Z,1.00
2023-12-09T12:17:26.680Z,1.30
2023-12-09T12:19:00.136Z,0.80
2023-12-09T12:20:32.293Z,1.20
2023-12-09T12:22:07.986Z,1.20
2023-12-09T12:23:42.890Z,1.00
2023-12-09T12:25:15.068Z,0.90
2023-12-09T12:26:50.666Z,1.20
2023-12-09T12:28:27.331Z,1.00
2023-12-09T12:29:59.360Z,1.10
2023-12-09T12:31:32.683Z,1.10
2023-12-09T12:33:05.217Z,1.10
2023-12-09T12:34:37.875Z,0.90
2023-12-09T12:36:11.706Z,1.00
2023-12-09T12:37:43.866Z,0.60
2023-12-09T12:39:17.358Z,1.40
2023-12-09T12:40:50.905Z,1.20
2023-12-09T12:42:22.998Z,1.00
2023-12-09T12:43:55.394Z,1.00
2023-12-09T12:45:28.949Z,0.90
2023-12-09T12:47:01.523Z,1.00
2023-12-09T12:48:33.677Z,0.90
2023-12-09T12:50:06.894Z,1.10
2023-12-09T12:51:39.480Z,1.00
2023-12-09T12:53:12.456Z,1.30
2023-12-09T12:54:44.408Z,1.30
2023-12-09T12:56:16.422Z,1.30
2023-12-09T12:57:48.441Z,0.90
2023-12-09T12:59:20.629Z,1.20
2023-12-09T13:00:55.446Z,1.20
2023-12-09T13:02:27.730Z,1.50
2023-12-09T13:04:01.631Z,1.20
2023-12-09T13:05:33.756Z,1.30
2023-12-09T13:07:05.739Z,0.90
2023-12-09T13:08:41.480Z,1.10
2023-12-09T13:10:13.478Z,1.30
2023-12-09T13:11:45.447Z,1.00
2023-12-09T13:13:17.459Z,1.00
2023-12-09T13:14:50.456Z,1.20
2023-12-09T13:16:23.927Z,1.00
2023-12-09T13:17:57.022Z,1.10
2023-12-09T13:19:35.824Z,0.90
2023-12-09T13:21:11.560Z,1.20
2023-12-09T13:22:43.920Z,0.80
2023-12-09T13:24:16.406Z,1.10
2023-12-09T13:25:51.538Z,1.20
2023-12-09T13:27:24.190Z,1.10
2023-12-09T13:28:57.378Z,0.90
2023-12-09T13:30:39.884Z,0.80
2023-12-09T13:32:12.144Z,1.00
2023-12-09T13:33:44.513Z,0.90
2023-12-09T13:35:16.778Z,1.00
2023-12-09T13:36:49.331Z,0.70
2023-12-09T13:38:22.030Z,0.80
2023-12-09T13:39:54.130Z,1.00
2023-12-09T13:41:27.320Z,0.80
2023-12-09T13:42:59.351Z,1.20
2023-12-09T13:44:31.388Z,0.90
2023-12-09T13:46:03.633Z,1.10
2023-12-09T13:47:35.872Z,1.10
2023-12-09T13:49:08.082Z,1.00
2023-12-09T13:50:40.911Z,1.30
2023-12-09T13:52:15.395Z,1.40
2023-12-09T13:53:47.564Z,1.20
2023-12-09T13:55:22.179Z,1.00
2023-12-09T13:56:54.161Z,1.30
2023-12-09T13:58:26.137Z,1.20
2023-12-09T13:59:58.672Z,1.50
2023-12-09T14:01:30.933Z,1.50
2023-12-09T14:03:03.995Z,1.00
2023-12-09T14:04:36.478Z,0.90
2023-12-09T14:06:09.133Z,1.20
2023-12-09T14:07:42.143Z,1.20
2023-12-09T14:09:16.225Z,1.50
2023-12-09T14:10:48.327Z,1.20
2023-12-09T14:12:20.240Z,1.10
2023-12-09T14:13:52.233Z,1.20
2023-12-09T14:15:25.050Z,1.10
2023-12-09T14:16:57.170Z,1.40
2023-12-09T14:18:29.777Z,1.40
2023-12-09T14:20:02.184Z,1.40
2023-12-09T14:21:34.246Z,0.90
2023-12-09T14:23:06.179Z,1.60
2023-12-09T14:24:38.241Z,1.30
2023-12-09T14:26:10.268Z,0.80
2023-12-09T14:27:42.262Z,1.00
2023-12-09T14:29:14.242Z,1.20
2023-12-09T14:30:46.801Z,1.10
2023-12-09T14:32:18.832Z,0.90
2023-12-09T14:33:51.332Z,1.10
2023-12-09T14:35:23.621Z,0.90
2023-12-09T14:36:55.678Z,0.90
2023-12-09T14:38:27.553Z,0.90
2023-12-09T14:39:59.707Z,1.00
2023-12-09T14:41:31.693Z,0.80
2023-12-09T14:43:09.916Z,1.10
2023-12-09T14:44:43.259Z,1.10
2023-12-09T14:46:15.922Z,1.00
2023-12-09T14:47:54.351Z,1.10
2023-12-09T14:49:33.524Z,0.90
2023-12-09T14:51:06.104Z,1.10
2023-12-09T14:52:39.018Z,0.80
2023-12-09T14:54:17.203Z,1.20
2023-12-09T14:55:50.391Z,0.80
2023-12-09T14:57:22.574Z,0.70
2023-12-09T14:58:54.799Z,1.00
2023-12-09T15:00:28.709Z,0.60
2023-12-09T15:02:00.751Z,0.50
2023-12-09T15:03:32.682Z,0.90
2023-12-09T15:05:05.330Z,0.70
2023-12-09T15:06:37.595Z,0.60
2023-12-09T15:08:09.975Z,0.80
2023-12-09T15:09:42.708Z,0.70
2023-12-09T15:11:15.019Z,0.80
2023-12-09T15:12:49.374Z,0.70
2023-12-09T15:14:22.086Z,0.70
2023-12-09T15:15:54.137Z,0.50
2023-12-09T15:17:26.565Z,0.80
2023-12-09T15:18:58.937Z,0.80
2023-12-09T15:20:32.577Z,0.70
2023-12-09T15:22:04.801Z,0.90
2023-12-09T15:23:36.699Z,0.60
2023-12-09T15:25:09.506Z,0.40
2023-12-09T15:26:41.800Z,0.50
2023-12-09T15:28:13.653Z,0.70
2023-12-09T15:29:45.545Z,0.50
2023-12-09T15:31:17.814Z,0.50
2023-12-09T15:32:50.738Z,0.70
2023-12-09T15:34:22.783Z,0.60
2023-12-09T15:35:55.945Z,0.50
2023-12-09T15:37:27.920Z,0.60
2023-12-09T15:38:59.778Z,0.60
2023-12-09T15:40:31.664Z,0.50
2023-12-09T15:42:04.069Z,0.40
2023-12-09T15:43:35.976Z,0.50
2023-12-09T15:45:09.932Z,0.40
2023-12-09T15:46:41.986Z,0.40
2023-12-09T15:48:14.236Z,0.40
2023-12-09T15:49:46.353Z,0.30
2023-12-09T15:51:18.283Z,0.40
2023-12-09T15:52:50.140Z,0.30
2023-12-09T15:54:22.621Z,0.40
2023-12-09T15:55:54.782Z,0.50
2023-12-09T15:57:26.757Z,0.40
2023-12-09T15:58:58.659Z,0.40
2023-12-09T16:00:30.592Z,0.40
2023-12-09T16:02:02.563Z,0.60
2023-12-09T16:03:34.550Z,0.40
2023-12-09T16:05:07.092Z,0.40
2023-12-09T16:06:39.202Z,0.30
2023-12-09T16:08:11.324Z,0.40
2023-12-09T16:09:51.619Z,0.30
2023-12-09T16:11:24.650Z,0.30
2023-12-09T16:12:56.654Z,0.70
2023-12-09T16:14:28.540Z,0.70
2023-12-09T16:16:00.599Z,0.40
2023-12-09T16:17:32.867Z,0.40
2023-12-09T16:19:04.909Z,0.20
2023-12-09T16:20:39.085Z,0.40
2023-12-09T16:22:10.929Z,0.30
2023-12-09T16:23:42.781Z,0.30
2023-12-09T16:25:14.807Z,0.60
2023-12-09T16:26:46.698Z,0.30
2023-12-09T16:28:19.368Z,0.60
2023-12-09T16:29:52.799Z,0.20
2023-12-09T16:31:24.777Z,0.40
2023-12-09T16:32:56.708Z,0.50
2023-12-09T16:34:28.839Z,0.60
2023-12-09T16:36:00.824Z,0.40
2023-12-09T16:37:32.673Z,0.50
2023-12-09T16:39:04.563Z,0.60
2023-12-09T16:40:36.417Z,0.60
2023-12-09T16:42:08.658Z,0.30
2023-12-09T16:43:40.614Z,0.50
2023-12-09T16:45:12.960Z,0.30
2023-12-09T16:46:51.148Z,0.70
2023-12-09T16:48:23.497Z,0.40
2023-12-09T16:49:55.537Z,0.40
2023-12-09T16:51:27.541Z,0.40
2023-12-09T16:52:59.517Z,0.60
2023-12-09T16:54:31.988Z,0.40
2023-12-09T16:56:04.095Z,0.30
2023-12-09T16:57:37.001Z,0.80
2023-12-09T16:59:11.931Z,0.70
2023-12-09T17:00:45.016Z,0.40
2023-12-09T17:02:17.497Z,0.90
2023-12-09T17:03:49.437Z,0.90
2023-12-09T17:05:21.440Z,1.00
2023-12-09T17:06:54.412Z,0.30
2023-12-09T17:08:28.010Z,0.30
2023-12-09T17:10:02.110Z,0.30
2023-12-09T17:11:34.625Z,0.40
2023-12-09T17:13:06.406Z,0.30
2023-12-09T17:14:38.408Z,0.20
2023-12-09T17:16:10.679Z,0.30
2023-12-09T17:17:46.773Z,0.40
2023-12-09T17:19:18.669Z,0.20
2023-12-09T17:20:50.574Z,0.40
2023-12-09T17:22:22.421Z,0.40
2023-12-09T17:23:54.343Z,0.30
2023-12-09T17:25:26.166Z,0.30
2023-12-09T17:26:58.475Z,0.40
2023-12-09T17:28:30.855Z,0.60
2023-12-09T17:30:02.757Z,0.40
2023-12-09T17:31:34.534Z,0.30
2023-12-09T17:33:06.717Z,0.30
2023-12-09T17:34:40.378Z,0.20
2023-12-09T17:36:12.422Z,0.60
2023-12-09T17:37:44.511Z,0.30
2023-12-09T17:39:17.491Z,0.30
2023-12-09T17:40:50.075Z,0.20
2023-12-09T17:42:21.987Z,1.00
2023-12-09T17:43:54.564Z,0.60
2023-12-09T17:45:26.592Z,0.70
2023-12-09T17:46:58.545Z,0.50
2023-12-09T17:48:30.465Z,0.70
2023-12-09T17:50:02.500Z,0.40
2023-12-09T17:51:34.430Z,0.30
2023-12-09T17:53:06.370Z,0.30
2023-12-09T17:54:38.343Z,0.30
2023-12-09T17:56:10.567Z,0.50
2023-12-09T17:57:42.820Z,0.40
2023-12-09T17:59:14.750Z,0.60
2023-12-09T18:00:46.771Z,0.90
2023-12-09T18:02:18.841Z,0.80
2023-12-09T18:03:50.922Z,1.10
2023-12-09T18:05:23.797Z,0.60
2023-12-09T18:06:55.824Z,0.60
2023-12-09T18:08:27.729Z,0.40
2023-12-09T18:09:59.739Z,0.50
2023-12-09T18:11:31.768Z,0.40
2023-12-09T18:13:03.645Z,0.40
2023-12-09T18:14:35.820Z,0.50
2023-12-09T18:16:09.905Z,0.60
2023-12-09T18:17:42.846Z,0.50
2023-12-09T18:19:15.322Z,0.50
2023-12-09T18:20:48.273Z,0.40
2023-12-09T18:22:22.070Z,0.50
2023-12-09T18:23:55.261Z,0.50
2023-12-09T18:25:30.753Z,0.30
2023-12-09T18:27:03.781Z,0.40
2023-12-09T18:28:37.095Z,0.50
2023-12-09T18:30:09.742Z,1.00
2023-12-09T18:31:44.759Z,0.40
2023-12-09T18:33:17.004Z,0.50
2023-12-09T18:34:49.017Z,0.50
2023-12-09T18:36:21.519Z,0.40
2023-12-09T18:37:53.686Z,0.50
2023-12-09T18:39:25.599Z,0.40
2023-12-09T18:40:57.519Z,0.70
2023-12-09T18:42:29.943Z,0.50
2023-12-09T18:44:05.629Z,0.60
2023-12-09T18:45:40.468Z,0.50
2023-12-09T18:47:12.353Z,0.90
2023-12-09T18:48:44.832Z,0.80
2023-12-09T18:50:17.352Z,0.80
2023-12-09T18:51:49.275Z,0.60
2023-12-09T18:53:21.186Z,0.70
2023-12-09T18:54:53.233Z,0.60
2023-12-09T18:56:27.034Z,0.40
2023-12-09T18:58:00.430Z,0.30
2023-12-09T18:59:33.156Z,0.50
2023-12-09T19:01:10.738Z,0.60
2023-12-09T19:02:44.374Z,0.50
2023-12-09T19:04:16.464Z,0.50
2023-12-09T19:05:48.757Z,0.60
2023-12-09T19:07:21.220Z,0.50
2023-12-09T19:08:53.285Z,0.60
2023-12-09T19:10:26.235Z,0.50
2023-12-09T19:11:58.715Z,0.90
2023-12-09T19:13:34.149Z,0.70
2023-12-09T19:15:08.226Z,0.70
2023-12-09T19:16:41.767Z,0.60
2023-12-09T19:18:13.797Z,0.90
2023-12-09T19:19:46.729Z,0.80
2023-12-09T19:21:19.453Z,1.00
2023-12-09T19:22:52.276Z,1.50
2023-12-09T19:24:25.142Z,1.30
2023-12-09T19:25:58.864Z,1.40
2023-12-09T19:27:30.913Z,1.00
2023-12-09T19:29:04.735Z,0.70
2023-12-09T19:30:36.809Z,1.00
2023-12-09T19:32:09.284Z,1.30
2023-12-09T19:33:41.419Z,0.80
2023-12-09T19:35:13.541Z,1.00
2023-12-09T19:36:45.940Z,1.00
2023-12-09T19:38:17.836Z,1.00
2023-12-09T19:39:50.122Z,1.50
2023-12-09T19:41:24.099Z,1.60
2023-12-09T19:42:57.921Z,1.40
2023-12-09T19:44:30.195Z,1.20
2023-12-09T19:46:02.498Z,1.80
2023-12-09T19:47:34.567Z,1.80
2023-12-09T19:49:06.599Z,1.90
2023-12-09T19:50:42.988Z,1.50
2023-12-09T19:52:15.520Z,2.10
2023-12-09T19:53:47.426Z,2.00
2023-12-09T19:55:19.358Z,1.60
2023-12-09T19:56:51.449Z,1.70
2023-12-09T19:58:23.319Z,1.90
2023-12-09T19:59:55.282Z,1.60
2023-12-09T20:01:27.205Z,1.70
2023-12-09T20:03:01.456Z,1.70
2023-12-09T20:04:33.826Z,1.60
2023-12-09T20:06:07.186Z,1.40
2023-12-09T20:07:39.187Z,2.80
2023-12-09T20:09:11.167Z,1.80
2023-12-09T20:10:43.268Z,2.00
2023-12-09T20:12:15.156Z,1.70
2023-12-09T20:13:48.002Z,1.90
2023-12-09T20:15:20.536Z,1.60
2023-12-09T20:16:52.506Z,1.80
2023-12-09T20:18:25.493Z,2.00
2023-12-09T20:19:57.526Z,2.50
2023-12-09T20:21:29.547Z,1.80
2023-12-09T20:23:01.566Z,2.90
2023-12-09T20:24:34.131Z,1.90
2023-12-09T20:26:06.846Z,1.70
2023-12-09T20:27:39.041Z,2.40
2023-12-09T20:29:11.014Z,2.20
2023-12-09T20:30:43.726Z,2.50
2023-12-09T20:32:15.727Z,2.80
2023-12-09T20:33:47.750Z,2.80
2023-12-09T20:35:19.824Z,2.30
2023-12-09T20:36:52.785Z,2.70
2023-12-09T20:38:25.174Z,2.70
2023-12-09T20:39:58.432Z,2.30